Flight Track Log - Related Links

Times and Time Zones

All times are in EDT time to prevent confusion due to time zone crossing. See the N825ST flight status page for this flight to view local times or setup timezone preferences in your user account.

Time Position Orientation Groundspeed Altitude Reporting Facility
EDT Latitude Longitude Course Direction KTS MPH feet Rate Location/Type
Wed 05:42:12 PM 46.8450 -100.6617 90° East 192 221 6,600  Level Minneapolis Center
Wed 05:43:14 PM 46.8500 -100.5728 85° East 210 242 8,100 1,548 Climbing Minneapolis Center
Wed 05:44:16 PM 46.8544 -100.4789 86° East 226 260 9,800 1,548 Climbing Minneapolis Center
Wed 05:45:00 PM 46.7959 -100.2494 83° East  Level FlightAware Approximate
Wed 05:45:18 PM 46.8569 -100.3897 88° East 231 266 11,300  Level Minneapolis Center
Wed 05:46:00 PM 46.8000 -100.1521 90° East  Level FlightAware Approximate
Wed 05:46:20 PM 46.8600 -100.2981 87° East 229 264 12,700  Level Minneapolis Center
Wed 05:47:00 PM 46.8001 -100.0544 90° East  Level FlightAware Approximate
Wed 05:47:23 PM 46.8636 -100.2025 87° East 233 268 14,100  Level Minneapolis Center
Wed 05:48:25 PM 46.8669 -100.1089 87° East 233 268 15,700 1,355 Climbing Minneapolis Center
Wed 05:49:27 PM 46.8678 -99.9983 89° East 228 262 16,900 629 Climbing Minneapolis Center
Wed 05:50:29 PM 46.8722 -99.8908 87° East 252 290 17,000 48 Climbing Minneapolis Center
Wed 05:51:31 PM 46.8767 -99.7725 87° East 284 327 17,000  Level Minneapolis Center
Wed 05:52:33 PM 46.8819 -99.6556 86° East 289 333 17,000  Level Minneapolis Center
Wed 05:53:35 PM 46.8839 -99.5369 89° East 292 336 17,000  Level Minneapolis Center
Wed 05:54:37 PM 46.8861 -99.3947 89° East 292 336 17,000  Level Minneapolis Center
Wed 05:55:39 PM 46.8894 -99.2761 88° East 293 337 17,000  Level Minneapolis Center
Wed 05:56:42 PM 46.8917 -99.1564 88° East 294 338 17,000  Level Minneapolis Center
Wed 05:57:44 PM 46.8944 -99.0375 88° East 295 339 17,000  Level Minneapolis Center
Wed 05:58:46 PM 46.8961 -98.9203 89° East 291 335 17,000  Level Minneapolis Center
Wed 05:59:48 PM 46.9003 -98.8028 87° East 291 335 17,000  Level Minneapolis Center
Wed 06:00:50 PM 46.9028 -98.6619 88° East 290 334 17,000  Level Minneapolis Center
Wed 06:01:52 PM 46.9053 -98.5439 88° East 292 336 17,000 -194 Level Minneapolis Center
Wed 06:02:54 PM 46.9056 -98.4261 90° East 292 336 16,600 -726 Descending Minneapolis Center
Wed 06:03:56 PM 46.9069 -98.3072 89° East 294 338 15,500 -1,161 Descending Minneapolis Center
Wed 06:04:58 PM 46.9111 -98.1856 87° East 297 342 14,200 -1,403 Descending Minneapolis Center
Wed 06:06:00 PM 46.9136 -98.0408 88° East 299 344 12,600 -1,344 Descending Minneapolis Center
Wed 06:07:03 PM 46.9122 -97.9189 91° East 300 345 11,400 -1,276 Descending Minneapolis Center
Wed 06:08:07 PM 46.9144 -97.7906 89° East 279 321 9,900 -823 Descending Minneapolis Center
Wed 06:09:07 PM 46.9167 -97.6872 88° East 265 305 9,700 -148 Descending Minneapolis Center
Wed 06:10:09 PM 46.9161 -97.5781 90° East 258 297 9,600 -339 Descending Minneapolis Center
Wed 06:11:11 PM 46.9158 -97.4667 90° East 260 299 9,000 -532 Descending Minneapolis Center
Wed 06:12:13 PM 46.9028 -97.3558 100° East 266 306 8,500 -581 Descending Minneapolis Center
Wed 06:13:15 PM 46.8858 -97.2458 103° East 264 304 7,800 -919 Descending Minneapolis Center
Wed 06:14:17 PM 46.8722 -97.1444 101° East 264 304 6,600 -1,548 Descending Minneapolis Center
Wed 06:15:19 PM 46.8556 -97.0483 104° East 237 273 4,600 -1,548 Descending Minneapolis Center
Wed 06:16:21 PM 46.8539 -96.9611 92° East 207 238 3,400 -919 Descending Minneapolis Center
Wed 06:17:23 PM 46.8564 -96.8867 87° East 180 207 2,700 -768 Descending Minneapolis Center
Wed 06:18:26 PM 46.8617 -96.8267 83° East 161 185 1,800 -857 Descending Minneapolis Center
Wed 06:20:00 PM 46.9167 -96.8000 90° East  Level FlightAware Approximate
Wed 06:27:00 PM 46.9207 -96.8158 90° East  Level Estimated
Wed 06:28:00 PM 46.9207 -96.8158 90° East  Level Estimated

Login

Don't have an account? Register now (free) for customized features, flight alerts, and more!